sensor_id;sensor_type;location;lat;lon;timestamp;P1;durP1;ratioP1;P2;durP2;ratioP2
56161;SDS011;42045;52.986;6.014;2022-10-26T00:02:22;23.38;;;14.98;;
56161;SDS011;42045;52.986;6.014;2022-10-26T00:04:48;20.23;;;14.35;;
56161;SDS011;42045;52.986;6.014;2022-10-26T00:07:14;20.35;;;13.18;;
56161;SDS011;42045;52.986;6.014;2022-10-26T00:09:40;19.05;;;12.82;;
56161;SDS011;42045;52.986;6.014;2022-10-26T00:12:05;21.83;;;14.20;;
56161;SDS011;42045;52.986;6.014;2022-10-26T00:14:31;17.20;;;12.57;;
56161;SDS011;42045;52.986;6.014;2022-10-26T00:16:57;17.65;;;12.75;;
56161;SDS011;42045;52.986;6.014;2022-10-26T00:19:23;16.50;;;12.82;;
56161;SDS011;42045;52.986;6.014;2022-10-26T00:21:48;20.08;;;13.20;;
56161;SDS011;42045;52.986;6.014;2022-10-26T00:24:14;19.38;;;12.23;;
56161;SDS011;42045;52.986;6.014;2022-10-26T00:26:40;18.58;;;13.35;;
56161;SDS011;42045;52.986;6.014;2022-10-26T00:29:06;15.95;;;13.07;;
56161;SDS011;42045;52.986;6.014;2022-10-26T00:31:32;17.42;;;12.57;;
56161;SDS011;42045;52.986;6.014;2022-10-26T00:33:58;19.13;;;13.25;;
56161;SDS011;42045;52.986;6.014;2022-10-26T00:36:24;18.38;;;12.65;;
56161;SDS011;42045;52.986;6.014;2022-10-26T00:38:51;21.80;;;13.65;;
56161;SDS011;42045;52.986;6.014;2022-10-26T00:41:19;22.80;;;13.20;;
56161;SDS011;42045;52.986;6.014;2022-10-26T00:43:47;18.50;;;12.82;;
56161;SDS011;42045;52.986;6.014;2022-10-26T00:46:21;15.27;;;12.48;;
56161;SDS011;42045;52.986;6.014;2022-10-26T00:48:58;15.10;;;12.43;;
56161;SDS011;42045;52.986;6.014;2022-10-26T00:51:41;17.23;;;12.35;;
56161;SDS011;42045;52.986;6.014;2022-10-26T00:54:14;16.63;;;13.23;;
56161;SDS011;42045;52.986;6.014;2022-10-26T00:56:45;18.50;;;13.63;;
56161;SDS011;42045;52.986;6.014;2022-10-26T00:59:12;19.77;;;13.23;;
56161;SDS011;42045;52.986;6.014;2022-10-26T01:01:40;16.45;;;13.00;;
56161;SDS011;42045;52.986;6.014;2022-10-26T01:04:09;19.58;;;13.65;;
56161;SDS011;42045;52.986;6.014;2022-10-26T01:06:36;15.50;;;13.82;;
56161;SDS011;42045;52.986;6.014;2022-10-26T01:09:02;19.02;;;13.18;;
56161;SDS011;42045;52.986;6.014;2022-10-26T01:11:29;18.30;;;13.88;;
56161;SDS011;42045;52.986;6.014;2022-10-26T01:13:55;15.68;;;13.05;;
56161;SDS011;42045;52.986;6.014;2022-10-26T01:24:27;15.73;;;13.45;;
56161;SDS011;42045;52.986;6.014;2022-10-26T01:41:03;17.45;;;13.88;;
56161;SDS011;42045;52.986;6.014;2022-10-26T01:43:45;19.77;;;14.30;;
56161;SDS011;42045;52.986;6.014;2022-10-26T01:46:20;18.77;;;13.77;;
56161;SDS011;42045;52.986;6.014;2022-10-26T01:48:48;24.65;;;14.45;;
56161;SDS011;42045;52.986;6.014;2022-10-26T01:51:17;18.85;;;13.75;;
56161;SDS011;42045;52.986;6.014;2022-10-26T01:53:45;17.83;;;12.23;;
56161;SDS011;42045;52.986;6.014;2022-10-26T01:56:13;22.40;;;14.30;;
56161;SDS011;42045;52.986;6.014;2022-10-26T01:58:55;17.67;;;14.05;;
56161;SDS011;42045;52.986;6.014;2022-10-26T02:01:43;19.92;;;13.73;;
56161;SDS011;42045;52.986;6.014;2022-10-26T02:04:52;20.48;;;13.32;;
56161;SDS011;42045;52.986;6.014;2022-10-26T02:07:53;18.23;;;14.27;;
56161;SDS011;42045;52.986;6.014;2022-10-26T02:10:51;18.48;;;13.55;;
56161;SDS011;42045;52.986;6.014;2022-10-26T02:16:24;16.17;;;13.88;;
56161;SDS011;42045;52.986;6.014;2022-10-26T02:19:00;21.65;;;14.27;;
56161;SDS011;42045;52.986;6.014;2022-10-26T02:21:43;20.58;;;14.48;;
56161;SDS011;42045;52.986;6.014;2022-10-26T02:24:13;20.40;;;14.60;;
56161;SDS011;42045;52.986;6.014;2022-10-26T02:26:42;22.15;;;14.68;;
56161;SDS011;42045;52.986;6.014;2022-10-26T02:29:11;22.15;;;15.35;;
56161;SDS011;42045;52.986;6.014;2022-10-26T02:31:40;21.63;;;15.20;;
56161;SDS011;42045;52.986;6.014;2022-10-26T02:34:08;21.38;;;15.68;;
56161;SDS011;42045;52.986;6.014;2022-10-26T02:36:37;23.02;;;16.33;;
56161;SDS011;42045;52.986;6.014;2022-10-26T02:39:08;18.88;;;15.98;;
56161;SDS011;42045;52.986;6.014;2022-10-26T02:41:35;22.95;;;16.20;;
56161;SDS011;42045;52.986;6.014;2022-10-26T02:44:23;21.45;;;16.98;;
56161;SDS011;42045;52.986;6.014;2022-10-26T02:46:55;21.42;;;17.45;;
56161;SDS011;42045;52.986;6.014;2022-10-26T02:49:21;22.05;;;16.58;;
56161;SDS011;42045;52.986;6.014;2022-10-26T02:51:52;19.42;;;15.88;;
56161;SDS011;42045;52.986;6.014;2022-10-26T02:54:41;20.05;;;17.02;;
56161;SDS011;42045;52.986;6.014;2022-10-26T02:59:58;22.17;;;16.88;;
56161;SDS011;42045;52.986;6.014;2022-10-26T03:02:25;23.15;;;17.23;;
56161;SDS011;42045;52.986;6.014;2022-10-26T03:04:51;23.63;;;18.42;;
56161;SDS011;42045;52.986;6.014;2022-10-26T03:07:24;24.15;;;18.58;;
56161;SDS011;42045;52.986;6.014;2022-10-26T03:09:50;24.77;;;19.73;;
56161;SDS011;42045;52.986;6.014;2022-10-26T03:12:16;29.63;;;21.23;;
56161;SDS011;42045;52.986;6.014;2022-10-26T03:14:42;26.00;;;20.23;;
56161;SDS011;42045;52.986;6.014;2022-10-26T03:17:08;28.98;;;20.98;;
56161;SDS011;42045;52.986;6.014;2022-10-26T03:19:33;28.77;;;22.63;;
56161;SDS011;42045;52.986;6.014;2022-10-26T03:21:59;25.33;;;20.98;;
56161;SDS011;42045;52.986;6.014;2022-10-26T03:24:25;26.60;;;21.10;;
56161;SDS011;42045;52.986;6.014;2022-10-26T03:26:50;32.08;;;21.83;;
56161;SDS011;42045;52.986;6.014;2022-10-26T03:29:16;25.20;;;20.90;;
56161;SDS011;42045;52.986;6.014;2022-10-26T03:31:41;28.45;;;21.95;;
56161;SDS011;42045;52.986;6.014;2022-10-26T03:34:07;29.90;;;22.52;;
56161;SDS011;42045;52.986;6.014;2022-10-26T03:36:32;28.88;;;22.27;;
56161;SDS011;42045;52.986;6.014;2022-10-26T03:38:58;23.27;;;20.75;;
56161;SDS011;42045;52.986;6.014;2022-10-26T03:41:24;40.13;;;25.05;;
56161;SDS011;42045;52.986;6.014;2022-10-26T03:43:49;27.30;;;22.83;;
56161;SDS011;42045;52.986;6.014;2022-10-26T03:46:15;25.88;;;22.45;;
56161;SDS011;42045;52.986;6.014;2022-10-26T03:48:41;28.55;;;21.85;;
56161;SDS011;42045;52.986;6.014;2022-10-26T03:51:06;28.15;;;23.95;;
56161;SDS011;42045;52.986;6.014;2022-10-26T03:53:32;28.25;;;23.33;;
56161;SDS011;42045;52.986;6.014;2022-10-26T03:55:58;31.58;;;23.00;;
56161;SDS011;42045;52.986;6.014;2022-10-26T03:58:23;27.98;;;22.67;;
56161;SDS011;42045;52.986;6.014;2022-10-26T04:00:49;31.45;;;23.60;;
56161;SDS011;42045;52.986;6.014;2022-10-26T04:03:15;27.75;;;24.05;;
56161;SDS011;42045;52.986;6.014;2022-10-26T04:05:40;28.13;;;23.42;;
56161;SDS011;42045;52.986;6.014;2022-10-26T04:08:06;27.25;;;23.42;;
56161;SDS011;42045;52.986;6.014;2022-10-26T04:10:32;40.60;;;26.33;;
56161;SDS011;42045;52.986;6.014;2022-10-26T04:12:58;30.35;;;24.15;;
56161;SDS011;42045;52.986;6.014;2022-10-26T04:15:25;26.48;;;23.30;;
56161;SDS011;42045;52.986;6.014;2022-10-26T04:17:58;30.25;;;22.83;;
56161;SDS011;42045;52.986;6.014;2022-10-26T04:20:25;29.10;;;23.55;;
56161;SDS011;42045;52.986;6.014;2022-10-26T04:23:03;36.53;;;24.73;;
56161;SDS011;42045;52.986;6.014;2022-10-26T04:25:30;29.95;;;24.23;;
56161;SDS011;42045;52.986;6.014;2022-10-26T04:27:57;30.35;;;22.50;;
56161;SDS011;42045;52.986;6.014;2022-10-26T04:30:23;32.97;;;23.73;;
56161;SDS011;42045;52.986;6.014;2022-10-26T04:32:49;26.63;;;21.70;;
56161;SDS011;42045;52.986;6.014;2022-10-26T04:35:15;29.27;;;21.13;;
56161;SDS011;42045;52.986;6.014;2022-10-26T04:37:40;30.02;;;22.45;;
56161;SDS011;42045;52.986;6.014;2022-10-26T04:40:06;24.13;;;21.40;;
56161;SDS011;42045;52.986;6.014;2022-10-26T04:42:42;31.60;;;21.38;;
56161;SDS011;42045;52.986;6.014;2022-10-26T04:45:12;31.92;;;21.77;;
56161;SDS011;42045;52.986;6.014;2022-10-26T04:47:39;24.83;;;20.35;;
56161;SDS011;42045;52.986;6.014;2022-10-26T04:50:06;26.20;;;21.42;;
56161;SDS011;42045;52.986;6.014;2022-10-26T04:52:33;27.35;;;21.83;;
56161;SDS011;42045;52.986;6.014;2022-10-26T04:54:59;29.50;;;21.42;;
56161;SDS011;42045;52.986;6.014;2022-10-26T04:57:26;27.13;;;21.15;;
56161;SDS011;42045;52.986;6.014;2022-10-26T04:59:51;28.33;;;21.13;;
56161;SDS011;42045;52.986;6.014;2022-10-26T05:02:17;28.73;;;21.90;;
56161;SDS011;42045;52.986;6.014;2022-10-26T05:04:45;29.38;;;21.52;;
56161;SDS011;42045;52.986;6.014;2022-10-26T05:07:10;33.60;;;23.98;;
56161;SDS011;42045;52.986;6.014;2022-10-26T05:09:36;32.75;;;22.30;;
56161;SDS011;42045;52.986;6.014;2022-10-26T05:12:02;28.15;;;25.23;;
56161;SDS011;42045;52.986;6.014;2022-10-26T05:14:28;27.15;;;24.30;;
56161;SDS011;42045;52.986;6.014;2022-10-26T05:16:53;24.40;;;20.70;;
56161;SDS011;42045;52.986;6.014;2022-10-26T05:19:19;26.80;;;21.15;;
56161;SDS011;42045;52.986;6.014;2022-10-26T05:21:45;26.52;;;20.52;;
56161;SDS011;42045;52.986;6.014;2022-10-26T05:24:11;27.50;;;20.17;;
56161;SDS011;42045;52.986;6.014;2022-10-26T05:26:36;30.15;;;21.02;;
56161;SDS011;42045;52.986;6.014;2022-10-26T05:29:02;23.00;;;19.98;;
56161;SDS011;42045;52.986;6.014;2022-10-26T05:31:28;25.95;;;21.35;;
56161;SDS011;42045;52.986;6.014;2022-10-26T05:33:53;24.38;;;20.63;;
56161;SDS011;42045;52.986;6.014;2022-10-26T05:36:19;25.88;;;17.67;;
56161;SDS011;42045;52.986;6.014;2022-10-26T05:38:45;24.88;;;22.23;;
56161;SDS011;42045;52.986;6.014;2022-10-26T05:41:11;27.33;;;21.17;;
56161;SDS011;42045;52.986;6.014;2022-10-26T05:43:37;29.75;;;21.20;;
56161;SDS011;42045;52.986;6.014;2022-10-26T05:46:03;25.27;;;18.60;;
56161;SDS011;42045;52.986;6.014;2022-10-26T05:48:29;24.88;;;19.50;;
56161;SDS011;42045;52.986;6.014;2022-10-26T05:50:57;21.73;;;18.55;;
56161;SDS011;42045;52.986;6.014;2022-10-26T05:53:24;23.83;;;19.38;;
56161;SDS011;42045;52.986;6.014;2022-10-26T05:55:50;24.90;;;17.52;;
56161;SDS011;42045;52.986;6.014;2022-10-26T05:58:16;22.85;;;18.27;;
56161;SDS011;42045;52.986;6.014;2022-10-26T06:01:06;24.00;;;18.27;;
56161;SDS011;42045;52.986;6.014;2022-10-26T06:06:01;20.17;;;16.63;;
56161;SDS011;42045;52.986;6.014;2022-10-26T06:08:28;22.80;;;17.50;;
56161;SDS011;42045;52.986;6.014;2022-10-26T06:10:54;24.88;;;17.92;;
56161;SDS011;42045;52.986;6.014;2022-10-26T06:13:23;26.08;;;16.63;;
56161;SDS011;42045;52.986;6.014;2022-10-26T06:24:14;21.77;;;16.52;;
56161;SDS011;42045;52.986;6.014;2022-10-26T06:32:27;22.98;;;16.30;;
56161;SDS011;42045;52.986;6.014;2022-10-26T06:35:06;23.33;;;17.27;;
56161;SDS011;42045;52.986;6.014;2022-10-26T06:37:53;20.50;;;16.95;;
56161;SDS011;42045;52.986;6.014;2022-10-26T06:40:21;21.05;;;16.17;;
56161;SDS011;42045;52.986;6.014;2022-10-26T06:42:48;21.02;;;17.02;;
56161;SDS011;42045;52.986;6.014;2022-10-26T06:45:14;28.65;;;16.58;;
56161;SDS011;42045;52.986;6.014;2022-10-26T06:53:02;20.77;;;16.02;;
56161;SDS011;42045;52.986;6.014;2022-10-26T06:55:31;22.20;;;16.75;;
56161;SDS011;42045;52.986;6.014;2022-10-26T06:58:07;21.05;;;16.25;;
56161;SDS011;42045;52.986;6.014;2022-10-26T07:00:37;21.02;;;16.83;;
56161;SDS011;42045;52.986;6.014;2022-10-26T07:03:03;23.75;;;17.38;;
56161;SDS011;42045;52.986;6.014;2022-10-26T07:05:29;19.88;;;15.70;;
56161;SDS011;42045;52.986;6.014;2022-10-26T07:07:55;21.08;;;16.17;;
56161;SDS011;42045;52.986;6.014;2022-10-26T07:10:20;19.85;;;15.98;;
56161;SDS011;42045;52.986;6.014;2022-10-26T07:12:46;17.75;;;15.00;;
56161;SDS011;42045;52.986;6.014;2022-10-26T07:15:11;17.35;;;14.85;;
56161;SDS011;42045;52.986;6.014;2022-10-26T07:17:43;22.45;;;14.70;;
56161;SDS011;42045;52.986;6.014;2022-10-26T07:20:14;22.60;;;14.43;;
56161;SDS011;42045;52.986;6.014;2022-10-26T07:22:41;22.08;;;15.18;;
56161;SDS011;42045;52.986;6.014;2022-10-26T07:25:07;19.48;;;14.98;;
56161;SDS011;42045;52.986;6.014;2022-10-26T07:27:33;18.33;;;14.68;;
56161;SDS011;42045;52.986;6.014;2022-10-26T07:29:59;16.45;;;13.45;;
56161;SDS011;42045;52.986;6.014;2022-10-26T07:32:25;17.35;;;13.25;;
56161;SDS011;42045;52.986;6.014;2022-10-26T07:34:51;18.42;;;13.73;;
56161;SDS011;42045;52.986;6.014;2022-10-26T07:37:17;18.35;;;14.30;;
56161;SDS011;42045;52.986;6.014;2022-10-26T07:39:42;16.30;;;13.75;;
56161;SDS011;42045;52.986;6.014;2022-10-26T07:42:08;16.17;;;13.25;;
56161;SDS011;42045;52.986;6.014;2022-10-26T07:44:33;19.25;;;13.18;;
56161;SDS011;42045;52.986;6.014;2022-10-26T07:46:59;20.73;;;14.15;;
56161;SDS011;42045;52.986;6.014;2022-10-26T07:49:25;16.70;;;12.85;;
56161;SDS011;42045;52.986;6.014;2022-10-26T07:51:50;12.65;;;11.23;;
56161;SDS011;42045;52.986;6.014;2022-10-26T07:54:16;18.50;;;12.55;;
56161;SDS011;42045;52.986;6.014;2022-10-26T07:56:42;16.48;;;12.30;;
56161;SDS011;42045;52.986;6.014;2022-10-26T07:59:09;14.65;;;12.13;;
56161;SDS011;42045;52.986;6.014;2022-10-26T08:01:36;18.13;;;12.18;;
56161;SDS011;42045;52.986;6.014;2022-10-26T08:04:02;14.75;;;11.35;;
56161;SDS011;42045;52.986;6.014;2022-10-26T08:06:28;13.18;;;11.05;;
56161;SDS011;42045;52.986;6.014;2022-10-26T08:08:53;15.45;;;11.07;;
56161;SDS011;42045;52.986;6.014;2022-10-26T08:11:19;12.45;;;10.45;;
56161;SDS011;42045;52.986;6.014;2022-10-26T08:13:45;14.45;;;11.10;;
56161;SDS011;42045;52.986;6.014;2022-10-26T08:16:11;15.10;;;11.52;;
56161;SDS011;42045;52.986;6.014;2022-10-26T08:18:37;14.27;;;10.38;;
56161;SDS011;42045;52.986;6.014;2022-10-26T08:21:04;17.70;;;11.68;;
56161;SDS011;42045;52.986;6.014;2022-10-26T08:23:31;13.20;;;10.18;;
56161;SDS011;42045;52.986;6.014;2022-10-26T08:26:00;13.45;;;9.82;;
56161;SDS011;42045;52.986;6.014;2022-10-26T08:28:27;13.85;;;9.70;;
56161;SDS011;42045;52.986;6.014;2022-10-26T08:30:53;13.77;;;9.73;;
56161;SDS011;42045;52.986;6.014;2022-10-26T08:33:19;14.63;;;10.15;;
56161;SDS011;42045;52.986;6.014;2022-10-26T08:35:46;13.35;;;9.30;;
56161;SDS011;42045;52.986;6.014;2022-10-26T08:38:11;14.68;;;8.40;;
56161;SDS011;42045;52.986;6.014;2022-10-26T08:40:37;11.02;;;9.50;;
56161;SDS011;42045;52.986;6.014;2022-10-26T08:43:19;12.55;;;9.27;;
56161;SDS011;42045;52.986;6.014;2022-10-26T08:48:40;13.85;;;9.27;;
56161;SDS011;42045;52.986;6.014;2022-10-26T08:51:28;18.17;;;10.75;;
56161;SDS011;42045;52.986;6.014;2022-10-26T08:54:07;11.50;;;8.15;;
56161;SDS011;42045;52.986;6.014;2022-10-26T08:56:45;12.65;;;8.30;;
56161;SDS011;42045;52.986;6.014;2022-10-26T09:01:51;11.43;;;7.45;;
56161;SDS011;42045;52.986;6.014;2022-10-26T09:04:18;11.60;;;7.35;;
56161;SDS011;42045;52.986;6.014;2022-10-26T09:06:52;13.70;;;7.43;;
56161;SDS011;42045;52.986;6.014;2022-10-26T09:15:15;10.52;;;6.90;;
56161;SDS011;42045;52.986;6.014;2022-10-26T09:20:56;10.88;;;6.40;;
56161;SDS011;42045;52.986;6.014;2022-10-26T09:24:12;9.57;;;6.78;;
56161;SDS011;42045;52.986;6.014;2022-10-26T09:29:17;10.77;;;6.47;;
56161;SDS011;42045;52.986;6.014;2022-10-26T09:31:46;10.82;;;6.93;;
56161;SDS011;42045;52.986;6.014;2022-10-26T09:34:36;12.20;;;7.20;;
56161;SDS011;42045;52.986;6.014;2022-10-26T09:37:19;16.08;;;7.20;;
56161;SDS011;42045;52.986;6.014;2022-10-26T09:43:03;9.68;;;6.65;;
56161;SDS011;42045;52.986;6.014;2022-10-26T09:45:36;10.75;;;6.18;;
56161;SDS011;42045;52.986;6.014;2022-10-26T09:48:13;12.85;;;7.03;;
56161;SDS011;42045;52.986;6.014;2022-10-26T09:50:45;8.60;;;6.57;;
56161;SDS011;42045;52.986;6.014;2022-10-26T09:53:13;10.75;;;5.95;;
56161;SDS011;42045;52.986;6.014;2022-10-26T09:55:43;11.20;;;6.93;;
56161;SDS011;42045;52.986;6.014;2022-10-26T09:58:12;11.07;;;5.95;;
56161;SDS011;42045;52.986;6.014;2022-10-26T10:00:44;8.80;;;5.55;;
56161;SDS011;42045;52.986;6.014;2022-10-26T10:03:20;7.43;;;5.88;;
56161;SDS011;42045;52.986;6.014;2022-10-26T10:05:51;10.60;;;5.38;;
56161;SDS011;42045;52.986;6.014;2022-10-26T10:10:57;16.33;;;6.15;;
56161;SDS011;42045;52.986;6.014;2022-10-26T10:18:51;7.75;;;4.43;;
56161;SDS011;42045;52.986;6.014;2022-10-26T10:21:32;8.55;;;4.05;;
56161;SDS011;42045;52.986;6.014;2022-10-26T10:24:02;6.88;;;4.00;;
56161;SDS011;42045;52.986;6.014;2022-10-26T10:29:44;6.97;;;3.92;;
56161;SDS011;42045;52.986;6.014;2022-10-26T10:34:45;10.60;;;4.68;;
56161;SDS011;42045;52.986;6.014;2022-10-26T10:37:21;13.05;;;4.30;;
56161;SDS011;42045;52.986;6.014;2022-10-26T10:39:47;10.25;;;4.88;;
56161;SDS011;42045;52.986;6.014;2022-10-26T10:42:20;12.00;;;4.45;;
56161;SDS011;42045;52.986;6.014;2022-10-26T10:44:51;4.97;;;4.47;;
56161;SDS011;42045;52.986;6.014;2022-10-26T10:47:20;7.88;;;4.90;;
56161;SDS011;42045;52.986;6.014;2022-10-26T10:49:49;7.32;;;4.30;;
56161;SDS011;42045;52.986;6.014;2022-10-26T10:52:32;7.72;;;4.20;;
56161;SDS011;42045;52.986;6.014;2022-10-26T10:55:15;6.93;;;4.43;;
56161;SDS011;42045;52.986;6.014;2022-10-26T11:00:15;9.43;;;4.63;;
56161;SDS011;42045;52.986;6.014;2022-10-26T11:05:37;6.32;;;4.57;;
56161;SDS011;42045;52.986;6.014;2022-10-26T11:08:25;10.25;;;5.28;;
56161;SDS011;42045;52.986;6.014;2022-10-26T11:13:49;6.60;;;4.40;;
56161;SDS011;42045;52.986;6.014;2022-10-26T11:16:23;7.18;;;4.43;;
56161;SDS011;42045;52.986;6.014;2022-10-26T11:19:04;11.23;;;4.55;;
56161;SDS011;42045;52.986;6.014;2022-10-26T11:21:54;9.38;;;4.15;;
56161;SDS011;42045;52.986;6.014;2022-10-26T11:30:14;11.15;;;4.88;;
56161;SDS011;42045;52.986;6.014;2022-10-26T11:32:46;9.85;;;5.20;;
56161;SDS011;42045;52.986;6.014;2022-10-26T11:37:54;8.10;;;4.93;;
56161;SDS011;42045;52.986;6.014;2022-10-26T11:40:35;7.60;;;5.13;;
56161;SDS011;42045;52.986;6.014;2022-10-26T11:43:26;9.77;;;5.07;;
56161;SDS011;42045;52.986;6.014;2022-10-26T11:51:37;9.85;;;5.38;;
56161;SDS011;42045;52.986;6.014;2022-10-26T11:54:09;8.45;;;5.78;;
56161;SDS011;42045;52.986;6.014;2022-10-26T11:56:40;11.25;;;6.68;;
56161;SDS011;42045;52.986;6.014;2022-10-26T11:59:14;10.50;;;6.82;;
56161;SDS011;42045;52.986;6.014;2022-10-26T12:01:56;10.03;;;7.57;;
56161;SDS011;42045;52.986;6.014;2022-10-26T12:04:28;10.82;;;6.78;;
56161;SDS011;42045;52.986;6.014;2022-10-26T12:06:57;9.20;;;6.88;;
56161;SDS011;42045;52.986;6.014;2022-10-26T12:09:26;10.05;;;6.68;;
56161;SDS011;42045;52.986;6.014;2022-10-26T12:11:58;8.95;;;6.75;;
56161;SDS011;42045;52.986;6.014;2022-10-26T12:17:07;10.57;;;6.43;;
56161;SDS011;42045;52.986;6.014;2022-10-26T12:22:19;9.38;;;7.15;;
56161;SDS011;42045;52.986;6.014;2022-10-26T12:25:07;14.60;;;7.28;;
56161;SDS011;42045;52.986;6.014;2022-10-26T12:37:57;16.85;;;8.27;;
56161;SDS011;42045;52.986;6.014;2022-10-26T12:42:56;13.07;;;7.93;;
56161;SDS011;42045;52.986;6.014;2022-10-26T12:45:37;12.38;;;7.93;;
56161;SDS011;42045;52.986;6.014;2022-10-26T12:48:03;12.75;;;8.43;;
56161;SDS011;42045;52.986;6.014;2022-10-26T12:50:45;12.35;;;7.63;;
56161;SDS011;42045;52.986;6.014;2022-10-26T12:53:12;13.80;;;7.28;;
56161;SDS011;42045;52.986;6.014;2022-10-26T12:58:45;11.80;;;8.40;;
56161;SDS011;42045;52.986;6.014;2022-10-26T13:07:18;11.60;;;8.73;;
56161;SDS011;42045;52.986;6.014;2022-10-26T13:09:56;12.43;;;8.20;;
56161;SDS011;42045;52.986;6.014;2022-10-26T13:12:25;11.05;;;7.97;;
56161;SDS011;42045;52.986;6.014;2022-10-26T13:14:58;14.50;;;8.30;;
56161;SDS011;42045;52.986;6.014;2022-10-26T13:17:31;14.88;;;7.05;;
56161;SDS011;42045;52.986;6.014;2022-10-26T13:19:58;12.85;;;7.20;;
56161;SDS011;42045;52.986;6.014;2022-10-26T13:22:29;11.00;;;8.40;;
56161;SDS011;42045;52.986;6.014;2022-10-26T13:24:57;10.27;;;6.15;;
56161;SDS011;42045;52.986;6.014;2022-10-26T13:32:34;7.03;;;5.50;;
56161;SDS011;42045;52.986;6.014;2022-10-26T13:35:04;14.52;;;7.40;;
56161;SDS011;42045;52.986;6.014;2022-10-26T13:37:36;9.55;;;5.50;;
56161;SDS011;42045;52.986;6.014;2022-10-26T13:40:05;10.15;;;4.95;;
56161;SDS011;42045;52.986;6.014;2022-10-26T13:42:36;9.73;;;5.30;;
56161;SDS011;42045;52.986;6.014;2022-10-26T13:45:14;10.75;;;5.80;;
56161;SDS011;42045;52.986;6.014;2022-10-26T13:47:44;8.10;;;5.35;;
56161;SDS011;42045;52.986;6.014;2022-10-26T13:50:26;11.48;;;5.60;;
56161;SDS011;42045;52.986;6.014;2022-10-26T13:52:58;8.50;;;5.55;;
56161;SDS011;42045;52.986;6.014;2022-10-26T13:58:21;11.38;;;5.38;;
56161;SDS011;42045;52.986;6.014;2022-10-26T14:03:34;11.25;;;5.72;;
56161;SDS011;42045;52.986;6.014;2022-10-26T14:06:03;11.25;;;6.20;;
56161;SDS011;42045;52.986;6.014;2022-10-26T14:08:56;10.75;;;6.53;;
56161;SDS011;42045;52.986;6.014;2022-10-26T14:11:28;8.65;;;7.30;;
56161;SDS011;42045;52.986;6.014;2022-10-26T14:13:57;11.95;;;7.57;;
56161;SDS011;42045;52.986;6.014;2022-10-26T14:16:24;13.43;;;8.40;;
56161;SDS011;42045;52.986;6.014;2022-10-26T14:18:53;11.05;;;7.97;;
56161;SDS011;42045;52.986;6.014;2022-10-26T14:21:19;9.60;;;7.90;;
56161;SDS011;42045;52.986;6.014;2022-10-26T14:23:54;10.57;;;9.50;;
56161;SDS011;42045;52.986;6.014;2022-10-26T14:28:51;14.57;;;11.27;;
56161;SDS011;42045;52.986;6.014;2022-10-26T14:31:23;16.95;;;12.63;;
56161;SDS011;42045;52.986;6.014;2022-10-26T14:33:51;13.77;;;12.38;;
56161;SDS011;42045;52.986;6.014;2022-10-26T14:36:18;15.30;;;13.60;;
56161;SDS011;42045;52.986;6.014;2022-10-26T14:38:48;15.68;;;14.27;;
56161;SDS011;42045;52.986;6.014;2022-10-26T14:41:20;18.50;;;16.63;;
56161;SDS011;42045;52.986;6.014;2022-10-26T14:43:46;19.08;;;17.40;;
56161;SDS011;42045;52.986;6.014;2022-10-26T14:46:13;21.30;;;19.15;;
56161;SDS011;42045;52.986;6.014;2022-10-26T14:48:42;20.27;;;18.38;;
56161;SDS011;42045;52.986;6.014;2022-10-26T14:51:24;19.52;;;17.63;;
56161;SDS011;42045;52.986;6.014;2022-10-26T14:53:58;19.95;;;18.08;;
56161;SDS011;42045;52.986;6.014;2022-10-26T14:59:09;20.83;;;18.80;;
56161;SDS011;42045;52.986;6.014;2022-10-26T15:07:06;20.60;;;18.13;;
56161;SDS011;42045;52.986;6.014;2022-10-26T15:12:17;19.30;;;17.48;;
56161;SDS011;42045;52.986;6.014;2022-10-26T15:17:38;19.38;;;17.35;;
56161;SDS011;42045;52.986;6.014;2022-10-26T15:20:13;19.55;;;17.73;;
56161;SDS011;42045;52.986;6.014;2022-10-26T15:22:42;18.80;;;17.10;;
56161;SDS011;42045;52.986;6.014;2022-10-26T15:25:16;18.75;;;16.85;;
56161;SDS011;42045;52.986;6.014;2022-10-26T15:27:46;17.85;;;16.15;;
56161;SDS011;42045;52.986;6.014;2022-10-26T15:30:19;17.15;;;15.55;;
56161;SDS011;42045;52.986;6.014;2022-10-26T15:32:46;19.67;;;17.20;;
56161;SDS011;42045;52.986;6.014;2022-10-26T15:37:47;17.30;;;15.68;;
56161;SDS011;42045;52.986;6.014;2022-10-26T15:40:14;17.08;;;15.25;;
56161;SDS011;42045;52.986;6.014;2022-10-26T15:42:40;17.05;;;15.55;;
56161;SDS011;42045;52.986;6.014;2022-10-26T15:47:43;17.98;;;14.52;;
56161;SDS011;42045;52.986;6.014;2022-10-26T15:50:13;15.70;;;13.98;;
56161;SDS011;42045;52.986;6.014;2022-10-26T15:52:40;15.45;;;13.93;;
56161;SDS011;42045;52.986;6.014;2022-10-26T15:55:06;16.25;;;13.25;;
56161;SDS011;42045;52.986;6.014;2022-10-26T15:57:32;15.85;;;13.45;;
56161;SDS011;42045;52.986;6.014;2022-10-26T15:59:57;14.18;;;12.77;;
56161;SDS011;42045;52.986;6.014;2022-10-26T16:02:23;17.67;;;13.65;;
56161;SDS011;42045;52.986;6.014;2022-10-26T16:04:49;15.15;;;13.55;;
56161;SDS011;42045;52.986;6.014;2022-10-26T16:07:14;14.25;;;12.07;;
56161;SDS011;42045;52.986;6.014;2022-10-26T16:09:40;14.52;;;13.18;;
56161;SDS011;42045;52.986;6.014;2022-10-26T16:12:10;15.30;;;12.75;;
56161;SDS011;42045;52.986;6.014;2022-10-26T16:14:37;15.20;;;12.48;;
56161;SDS011;42045;52.986;6.014;2022-10-26T16:17:04;14.65;;;12.82;;
56161;SDS011;42045;52.986;6.014;2022-10-26T16:19:31;17.25;;;12.38;;
56161;SDS011;42045;52.986;6.014;2022-10-26T16:21:58;12.52;;;11.32;;
56161;SDS011;42045;52.986;6.014;2022-10-26T16:24:24;14.68;;;11.00;;
56161;SDS011;42045;52.986;6.014;2022-10-26T16:26:51;13.60;;;12.23;;
56161;SDS011;42045;52.986;6.014;2022-10-26T16:29:17;12.07;;;10.63;;
56161;SDS011;42045;52.986;6.014;2022-10-26T16:31:43;16.70;;;12.55;;
56161;SDS011;42045;52.986;6.014;2022-10-26T16:34:09;17.70;;;12.77;;
56161;SDS011;42045;52.986;6.014;2022-10-26T16:36:35;16.85;;;13.57;;
56161;SDS011;42045;52.986;6.014;2022-10-26T16:39:02;15.00;;;13.52;;
56161;SDS011;42045;52.986;6.014;2022-10-26T16:41:31;14.82;;;13.25;;
56161;SDS011;42045;52.986;6.014;2022-10-26T16:43:58;14.95;;;13.25;;
56161;SDS011;42045;52.986;6.014;2022-10-26T16:46:23;14.25;;;13.00;;
56161;SDS011;42045;52.986;6.014;2022-10-26T16:48:49;15.77;;;14.18;;
56161;SDS011;42045;52.986;6.014;2022-10-26T16:51:17;17.80;;;12.95;;
56161;SDS011;42045;52.986;6.014;2022-10-26T16:53:49;17.88;;;14.60;;
56161;SDS011;42045;52.986;6.014;2022-10-26T16:56:17;15.80;;;13.25;;
56161;SDS011;42045;52.986;6.014;2022-10-26T16:58:45;15.55;;;12.50;;
56161;SDS011;42045;52.986;6.014;2022-10-26T17:01:11;15.15;;;13.68;;
56161;SDS011;42045;52.986;6.014;2022-10-26T17:03:42;14.07;;;12.65;;
56161;SDS011;42045;52.986;6.014;2022-10-26T17:06:08;15.23;;;13.10;;
56161;SDS011;42045;52.986;6.014;2022-10-26T17:08:34;13.88;;;11.80;;
56161;SDS011;42045;52.986;6.014;2022-10-26T17:11:11;15.27;;;11.38;;
56161;SDS011;42045;52.986;6.014;2022-10-26T17:13:39;14.48;;;10.02;;
56161;SDS011;42045;52.986;6.014;2022-10-26T17:16:06;12.55;;;10.85;;
56161;SDS011;42045;52.986;6.014;2022-10-26T17:18:35;14.52;;;9.60;;
56161;SDS011;42045;52.986;6.014;2022-10-26T17:21:01;13.10;;;9.25;;
56161;SDS011;42045;52.986;6.014;2022-10-26T17:23:26;12.60;;;9.35;;
56161;SDS011;42045;52.986;6.014;2022-10-26T17:25:52;13.20;;;10.15;;
56161;SDS011;42045;52.986;6.014;2022-10-26T17:28:18;12.05;;;9.55;;